Quakertown, NJ

1:25 PM EDT on September 17, 2014 (GMT -0400)
Cherryville | Change Station
CLOSE
Current Station
Personal Weather Station
Location: Flemington, NJ
Elevation: 707 ft
Nearby Weather Stations

Elev 707 ft 40.55 °N, 74.90 °W | Updated 8 seconds ago

Partly Cloudy
Partly Cloudy
68.0 °F
Feels Like 68.0 °F
N
2.0
Wind Variable Wind from West
Gusts 9.0 mph

Today
High -- | Low -- °F
--% Chance of Precip.
Yesterday
High -- | Low -- °F
Precip. -- in
6:42 AM 7:05 PM
Waning Crescent, 34% visible
Pressure 30.01 in
Visibility -9999.0 miles
Clouds Scattered Clouds 6000 ft
Dew Point 48 °F
Humidity 48%
Rainfall 0.00 in
Snow Depth Not available.
UV 6 out of 12
Pollen 3.00 out of 12
Air Quality Not available.
Flu Activity Not available.
METAR KSMQ 171653Z AUTO VRB05KT SCT060 22/07 A3001 RMK AO2 SLP162 T02170067 PWINO $

More Conditions Fewer Conditions

Pressure 30.01 in
Visibility -9999.0 miles
Clouds Scattered Clouds 6000 ft
Dew Point 48 °F
Humidity 48%
Rainfall 0.00 in
Snow Depth Not available.
UV 6 out of 12
Pollen 3.00 out of 12
Air Quality Not available.
Flu Activity Not available.
METAR KSMQ 171653Z AUTO VRB05KT SCT060 22/07 A3001 RMK AO2 SLP162 T02170067 PWINO $

More Conditions Fewer Conditions

10-Day Weather Forecast

Almanac

Astronomy

Sep. 17, 2014 Rise Set
Actual Time 6:42 AM EDT 7:05 PM EDT
Civil Twilight 6:15 AM EDT 7:32 PM EDT
Nautical Twilight 5:42 AM EDT 8:04 PM EDT
Astronomical Twilight 5:09 AM EDT 8:37 PM EDT
Moon 12:39 AM EDT 3:14 PM EDT
Length of Visible Light 13h 17m
Length of Day
12h 22m
Tomorrow will be 2m 40s shorter.
Waning Crescent, 34% of the Moon is Illuminated
Today
Waning Crescent
Sep 24
New
Oct 1
First Quarter
Oct 8
Full
Oct 15
Last Quarter

Today's Extremes

State Highs State Lows

Community

WunderPhotos

Upload Photos

1,754,107 photos uploaded!

Nearby

Snow Depth

Station Depth Elevation
No new snow has been reported.

Earthquake Activity

City Distance Mag. Time & Date
No recent earthquake activity has been reported nearby.
Minimum magnitude displayed is 2.5.

Coastal Water Temperatures

Place Temperature
No Stations Reporting

Nearby Weather Stations